createdAt,value
2022-12-16T00:47:58.741Z,100785.16
2022-12-16T00:50:26.296Z,100782.59
2022-12-16T00:52:53.959Z,100776.34
2022-12-16T00:55:22.526Z,100768.25
2022-12-16T00:57:50.239Z,100774.63
2022-12-16T01:47:17.160Z,100764.09
2022-12-16T01:49:45.325Z,100775.47
2022-12-16T01:52:16.612Z,100769.25
2022-12-16T01:54:44.443Z,100774.63
2022-12-16T01:57:12.945Z,100765.81
2022-12-16T01:59:40.831Z,100772.06
2022-12-16T02:46:10.009Z,100758.59
2022-12-16T02:48:37.674Z,100752.38
2022-12-16T02:51:05.305Z,100752.38
2022-12-16T02:53:34.316Z,100757.75
2022-12-16T02:56:03.932Z,100761.16
2022-12-16T02:58:32.946Z,100756.63
2022-12-16T03:47:59.687Z,100736.72
2022-12-16T03:50:27.849Z,100736.72
2022-12-16T03:52:55.465Z,100742.09
2022-12-16T03:55:23.104Z,100735.84
2022-12-16T03:57:50.910Z,100732.16
2022-12-16T04:46:01.161Z,100768.75
2022-12-16T04:48:46.419Z,100769.84
2022-12-16T04:51:31.614Z,100772.66
2022-12-16T04:54:17.132Z,100782.47
2022-12-16T04:57:02.237Z,100789.69
2022-12-16T04:59:47.223Z,100775.47
2022-12-16T05:31:53.727Z,100795.44
2022-12-16T05:34:39.103Z,100799.13
2022-12-16T05:37:24.191Z,100792.00
2022-12-16T05:40:09.109Z,100792.88
2022-12-16T05:42:54.092Z,100791.75
2022-12-16T05:45:39.217Z,100800.59
2022-12-16T05:48:26.064Z,100792.16
2022-12-16T05:51:11.411Z,100808.91
2022-12-16T05:53:56.273Z,100815.75
2022-12-16T05:56:41.554Z,100824.56
2022-12-16T05:59:27.068Z,100822.63
2022-12-16T06:02:12.511Z,100825.44
2022-12-16T06:04:59.247Z,100835.22
2022-12-16T06:07:44.748Z,100833.38
2022-12-16T06:10:35.274Z,100838.78
2022-12-16T06:13:32.066Z,100846.13
2022-12-16T06:16:17.264Z,100853.44
2022-12-16T06:19:02.360Z,100869.59
2022-12-16T06:21:49.344Z,100851.88
2022-12-16T06:24:34.440Z,100862.78
2022-12-16T06:27:19.591Z,100878.94
2022-12-16T06:30:04.815Z,100871.81
2022-12-16T06:32:50.137Z,100870.13
2022-12-16T06:35:35.684Z,100869.38
2022-12-16T06:38:22.484Z,100877.56
2022-12-16T06:41:07.027Z,100888.56
2022-12-16T06:43:52.191Z,100885.03
2022-12-16T06:46:37.408Z,100898.63
2022-12-16T06:49:22.535Z,100888.69
2022-12-16T06:52:07.878Z,100897.88
2022-12-16T06:54:55.055Z,100910.47
2022-12-16T06:57:40.265Z,100908.03
2022-12-16T07:00:26.372Z,100911.81
2022-12-16T07:03:11.663Z,100909.13
2022-12-16T07:05:56.878Z,100908.41
2022-12-16T07:08:42.498Z,100906.69
2022-12-16T07:11:25.532Z,100907.53
2022-12-16T07:14:10.706Z,100920.75
2022-12-16T07:16:55.854Z,100920.63
2022-12-16T07:19:41.240Z,100927.63
2022-12-16T07:22:26.450Z,100931.78
2022-12-16T07:25:11.604Z,100940.38
2022-12-16T07:27:58.432Z,100950.91
2022-12-16T07:30:49.173Z,100958.84
2022-12-16T07:33:34.641Z,100964.00
2022-12-16T07:36:20.299Z,100970.03
2022-12-16T07:39:05.459Z,100975.41
2022-12-16T07:41:50.693Z,100982.72
2022-12-16T07:44:40.072Z,101000.84
2022-12-16T07:47:25.411Z,100991.16
2022-12-16T07:50:10.717Z,100986.88
2022-12-16T07:52:56.066Z,101001.31
2022-12-16T07:55:41.332Z,101006.69
2022-12-16T07:58:27.152Z,101000.84
2022-12-16T08:46:58.235Z,101041.75
2022-12-16T08:49:43.589Z,101041.44
2022-12-16T08:52:28.700Z,101043.09
2022-12-16T08:55:13.883Z,101047.72
2022-12-16T08:57:58.773Z,101045.81
2022-12-16T09:30:02.054Z,101063.59
2022-12-16T09:32:46.949Z,101064.44
2022-12-16T09:35:31.825Z,101067.00
2022-12-16T09:38:16.738Z,101067.91
2022-12-16T09:41:01.842Z,101070.47
2022-12-16T09:43:51.280Z,101077.56
2022-12-16T09:46:39.542Z,101065.94
2022-12-16T09:49:25.248Z,101069.59
2022-12-16T09:52:12.488Z,101062.50
2022-12-16T09:55:01.331Z,101071.31
2022-12-16T09:57:49.883Z,101068.25
2022-12-16T10:00:38.142Z,101068.03
2022-12-16T10:03:30.265Z,101069.34
2022-12-16T10:06:16.080Z,101074.38
2022-12-16T10:09:03.455Z,101070.72
2022-12-16T10:11:51.626Z,101065.09
2022-12-16T10:14:37.750Z,101068.50
2022-12-16T10:17:23.096Z,101069.38
2022-12-16T10:20:10.683Z,101073.91
2022-12-16T10:22:55.993Z,101067.66
2022-12-16T10:25:41.508Z,101067.66
2022-12-16T10:28:30.830Z,101063.34
2022-12-16T10:31:15.735Z,101067.19
2022-12-16T10:34:01.006Z,101068.16
2022-12-16T10:36:47.297Z,101079.06
2022-12-16T10:39:47.106Z,101073.53
2022-12-16T10:42:34.992Z,101088.50
2022-12-16T10:45:16.571Z,101100.03
2022-12-16T10:48:01.630Z,101083.00
2022-12-16T10:50:46.608Z,101084.94
2022-12-16T10:53:33.872Z,101092.28
2022-12-16T10:56:22.290Z,101091.81
2022-12-16T10:59:09.763Z,101094.50
2022-12-16T11:01:55.388Z,101095.59
2022-12-16T11:04:47.712Z,101091.03
2022-12-16T11:07:43.150Z,101089.97
2022-12-16T11:10:45.440Z,101093.63
2022-12-16T11:13:31.237Z,101090.81
2022-12-16T11:16:24.056Z,101093.38
2022-12-16T11:19:09.179Z,101099.41
2022-12-16T11:21:54.073Z,101104.94
2022-12-16T11:24:39.118Z,101088.13
2022-12-16T11:27:30.819Z,101078.31
2022-12-16T11:30:16.045Z,101095.72
2022-12-16T11:33:07.842Z,101090.56
2022-12-16T11:35:55.650Z,101093.16
2022-12-16T11:38:42.671Z,101101.00
2022-12-16T11:41:27.958Z,101103.44
2022-12-16T11:44:14.573Z,101105.66
2022-12-16T11:46:59.431Z,101097.69
2022-12-16T11:49:46.142Z,101102.84
2022-12-16T11:52:40.560Z,101109.97
2022-12-16T11:56:03.621Z,101105.66
2022-12-16T11:58:37.821Z,101111.06
2022-12-16T12:01:28.105Z,101112.78
2022-12-16T12:04:13.405Z,101117.19
2022-12-16T12:07:02.120Z,101111.66
2022-12-16T12:09:47.601Z,101110.09
2022-12-16T12:12:34.802Z,101116.22
2022-12-16T12:15:20.069Z,101113.88
2022-12-16T12:18:08.024Z,101120.13
2022-12-16T12:20:59.185Z,101108.25
2022-12-16T12:23:46.810Z,101116.22
2022-12-16T12:26:32.046Z,101126.75
2022-12-16T12:29:18.124Z,101134.72
2022-12-16T12:32:05.180Z,101132.88
2022-12-16T12:34:53.461Z,101136.06
2022-12-16T12:37:40.307Z,101133.94
2022-12-16T12:40:29.198Z,101130.81
2022-12-16T12:43:14.080Z,101136.63
2022-12-16T12:46:10.806Z,101140.69
2022-12-16T12:48:58.774Z,101134.50
2022-12-16T12:51:52.580Z,101130.72
2022-12-16T12:54:39.950Z,101144.41
2022-12-16T12:57:25.003Z,101141.63
2022-12-16T13:00:11.580Z,101145.19
2022-12-16T13:03:00.411Z,101150.00
2022-12-16T13:05:45.796Z,101147.78
2022-12-16T13:08:48.475Z,101150.13
2022-12-16T13:11:35.585Z,101152.47
2022-12-16T13:14:20.669Z,101162.19
2022-12-16T13:17:25.420Z,101166.50
2022-12-16T13:20:17.159Z,101165.38
2022-12-16T13:23:02.541Z,101160.59
2022-12-16T13:25:55.590Z,101175.19
2022-12-16T13:28:43.317Z,101183.06
2022-12-16T13:31:28.301Z,101180.97
2022-12-16T13:34:10.012Z,101183.78
2022-12-16T13:36:54.924Z,101181.81
2022-12-16T13:39:40.883Z,101188.34
2022-12-16T13:42:45.645Z,101192.88
2022-12-16T13:45:51.619Z,101195.69
2022-12-16T13:48:57.566Z,101210.16
2022-12-16T13:51:57.878Z,101202.31
2022-12-16T13:54:44.907Z,101212.72
2022-12-16T13:57:29.849Z,101217.34
2022-12-16T14:00:14.741Z,101221.03
2022-12-16T14:03:00.262Z,101227.28
2022-12-16T14:06:02.127Z,101238.78
2022-12-16T14:08:48.544Z,101231.22
2022-12-16T14:11:34.232Z,101232.69
2022-12-16T14:14:19.569Z,101237.84
2022-12-16T14:17:06.173Z,101248.28
2022-12-16T14:19:52.641Z,101238.47
2022-12-16T14:22:47.861Z,101242.38
2022-12-16T14:25:33.403Z,101246.28
2022-12-16T14:28:18.788Z,101258.69
2022-12-16T14:31:09.486Z,101255.34
2022-12-16T14:33:55.026Z,101256.69
2022-12-16T14:36:40.667Z,101265.75
2022-12-16T14:39:31.241Z,101264.91
2022-12-16T14:42:16.597Z,101261.34
2022-12-16T14:45:03.315Z,101261.47
2022-12-16T14:48:03.141Z,101258.91
2022-12-16T14:50:48.748Z,101267.00
2022-12-16T14:53:35.256Z,101267.94
2022-12-16T14:56:37.545Z,101281.56
2022-12-16T14:59:26.806Z,101279.81
2022-12-16T15:02:14.761Z,101283.06
2022-12-16T15:05:00.082Z,101287.44
2022-12-16T15:07:45.234Z,101287.34
2022-12-16T15:10:31.230Z,101291.88
2022-12-16T15:13:18.076Z,101290.16
2022-12-16T15:16:03.483Z,101295.53
2022-12-16T15:18:49.302Z,101289.28
2022-12-16T15:21:34.318Z,101292.72
2022-12-16T15:24:18.901Z,101299.00
2022-12-16T15:27:03.939Z,101294.47
2022-12-16T15:29:51.932Z,101293.38
2022-12-16T15:32:50.797Z,101297.66
2022-12-16T15:35:42.811Z,101306.47
2022-12-16T15:38:29.631Z,101306.47
2022-12-16T15:41:22.823Z,101313.59
2022-12-16T15:44:07.743Z,101328.94
2022-12-16T15:46:54.365Z,101328.06
2022-12-16T15:49:39.991Z,101332.59
2022-12-16T15:52:42.695Z,101334.34
2022-12-16T15:55:41.004Z,101339.97
2022-12-16T15:58:30.368Z,101351.84
2022-12-16T16:01:15.808Z,101342.03
2022-12-16T16:04:02.406Z,101353.19
2022-12-16T16:06:47.755Z,101364.19
2022-12-16T16:09:33.027Z,101354.47
2022-12-16T16:12:17.922Z,101373.47
2022-12-16T16:15:03.149Z,101367.22
2022-12-16T16:17:48.232Z,101367.44
2022-12-16T16:20:35.380Z,101375.66
2022-12-16T16:23:20.516Z,101379.53
2022-12-16T16:26:05.620Z,101376.97
2022-12-16T16:28:50.938Z,101378.91
2022-12-16T16:31:36.108Z,101385.38
2022-12-16T16:34:21.400Z,101388.06
2022-12-16T16:37:07.907Z,101386.47
2022-12-16T16:39:52.792Z,101388.19
2022-12-16T16:42:40.778Z,101393.59
2022-12-16T16:45:26.173Z,101398.97
2022-12-16T16:48:26.177Z,101394.47
2022-12-16T16:51:12.783Z,101400.72
2022-12-16T16:53:59.270Z,101391.75
2022-12-16T16:56:45.531Z,101394.47
2022-12-16T16:59:31.674Z,101397.28
2022-12-16T17:02:17.112Z,101401.78
2022-12-16T17:05:02.939Z,101404.59
2022-12-16T17:07:53.675Z,101398.13
2022-12-16T17:10:40.130Z,101406.09
2022-12-16T17:13:26.316Z,101404.59
2022-12-16T17:16:11.402Z,101401.25
2022-12-16T17:18:56.691Z,101404.94
2022-12-16T17:21:42.122Z,101405.81
2022-12-16T17:24:27.274Z,101409.34
2022-12-16T17:27:13.765Z,101417.53
2022-12-16T17:29:59.087Z,101414.84
2022-12-16T17:32:55.507Z,101424.91
2022-12-16T17:35:40.582Z,101428.34
2022-12-16T17:38:26.527Z,101429.31
2022-12-16T17:41:11.904Z,101430.28
2022-12-16T17:43:58.380Z,101428.56
2022-12-16T17:46:43.679Z,101436.75
2022-12-16T17:49:28.888Z,101440.22
2022-12-16T17:52:13.987Z,101435.69
2022-12-16T17:54:59.121Z,101439.34
2022-12-16T17:57:44.324Z,101436.75
2022-12-16T18:00:31.315Z,101446.78
2022-12-16T18:03:16.445Z,101451.44
2022-12-16T18:06:14.648Z,101457.78
2022-12-16T18:08:59.771Z,101454.25
2022-12-16T18:11:45.271Z,101463.28
2022-12-16T18:14:30.239Z,101463.28
2022-12-16T18:17:16.718Z,101475.81
2022-12-16T18:20:02.008Z,101476.63
2022-12-16T18:22:46.817Z,101479.84
2022-12-16T18:25:32.001Z,101466.13
2022-12-16T18:28:17.124Z,101467.66
2022-12-16T18:31:02.332Z,101479.19
2022-12-16T18:33:49.034Z,101474.72
2022-12-16T18:36:34.097Z,101471.44
2022-12-16T18:39:19.414Z,101471.59
2022-12-16T18:42:04.805Z,101475.56
2022-12-16T18:44:49.631Z,101468.47
2022-12-16T18:47:34.931Z,101472.78
2022-12-16T18:50:27.835Z,101480.78
2022-12-16T18:53:14.409Z,101482.47
2022-12-16T18:55:59.784Z,101491.34
2022-12-16T18:58:52.308Z,101480.56
2022-12-16T19:01:33.895Z,101496.75
2022-12-16T19:04:18.987Z,101495.03
2022-12-16T19:07:05.246Z,101502.28
2022-12-16T19:09:50.664Z,101500.66
2022-12-16T19:12:35.704Z,101498.19
2022-12-16T19:15:21.134Z,101504.59
2022-12-16T19:18:06.794Z,101509.22
2022-12-16T19:20:51.916Z,101515.63
2022-12-16T19:23:38.781Z,101517.56
2022-12-16T19:26:24.085Z,101521.25
2022-12-16T19:29:09.169Z,101522.34
2022-12-16T19:31:54.738Z,101526.88
2022-12-16T19:34:40.946Z,101528.81
2022-12-16T19:37:26.337Z,101540.72
2022-12-16T19:40:12.818Z,101534.59
2022-12-16T19:42:58.128Z,101549.91
2022-12-16T19:45:43.386Z,101542.91
2022-12-16T19:48:28.425Z,101538.38
2022-12-16T19:51:15.352Z,101535.78
2022-12-16T19:54:00.470Z,101547.31
2022-12-16T19:56:47.380Z,101551.13
2022-12-16T19:59:32.979Z,101550.25
2022-12-16T20:02:18.644Z,101563.84
2022-12-16T20:05:03.885Z,101562.16
2022-12-16T20:07:49.093Z,101565.81
2022-12-16T20:10:34.316Z,101567.78
2022-12-16T20:13:27.185Z,101569.69
2022-12-16T20:16:19.171Z,101584.41
2022-12-16T20:19:04.282Z,101581.84
2022-12-16T20:22:06.888Z,101589.81
2022-12-16T20:24:52.636Z,101585.28
2022-12-16T20:27:41.356Z,101599.72
2022-12-16T20:30:28.659Z,101595.09
2022-12-16T20:33:13.872Z,101595.72
2022-12-16T20:35:59.335Z,101592.94
2022-12-16T20:38:44.418Z,101596.25
2022-12-16T20:41:29.738Z,101601.31
2022-12-16T20:44:14.674Z,101603.78
2022-12-16T20:47:01.171Z,101614.38
2022-12-16T20:49:46.368Z,101615.22
2022-12-16T20:52:31.422Z,101615.00
2022-12-16T20:55:16.350Z,101615.88
2022-12-16T20:58:02.052Z,101617.59
2022-12-16T21:00:47.389Z,101613.91
2022-12-16T21:03:34.335Z,101629.28
2022-12-16T21:06:19.556Z,101622.97
2022-12-16T21:09:04.933Z,101612.41
2022-12-16T21:11:50.770Z,101631.41
2022-12-16T21:14:36.902Z,101635.97
2022-12-16T21:17:22.068Z,101633.38
2022-12-16T21:20:08.500Z,101650.53
2022-12-16T21:22:54.439Z,101648.09
2022-12-16T21:25:41.154Z,101639.22
2022-12-16T21:28:26.320Z,101650.25
2022-12-16T21:31:11.442Z,101648.53
2022-12-16T21:33:56.563Z,101648.75
2022-12-16T21:36:43.897Z,101660.53
2022-12-16T21:39:29.167Z,101658.91
2022-12-16T21:42:14.242Z,101660.84
2022-12-16T21:44:59.292Z,101667.34
2022-12-16T21:47:44.474Z,101667.56
2022-12-16T21:50:29.750Z,101666.91
2022-12-16T21:53:16.127Z,101668.09
2022-12-16T21:56:01.505Z,101671.00
2022-12-16T21:58:45.944Z,101673.81
2022-12-16T22:01:30.907Z,101678.31
2022-12-16T22:04:16.248Z,101683.50
2022-12-16T22:07:01.335Z,101682.44
2022-12-16T22:09:47.805Z,101676.81
2022-12-16T22:12:33.043Z,101679.22
2022-12-16T22:15:18.178Z,101683.31
2022-12-16T22:18:03.390Z,101679.41
2022-12-16T22:20:48.169Z,101673.81
2022-12-16T22:23:41.855Z,101675.31
2022-12-16T22:26:28.891Z,101682.19
2022-12-16T22:29:14.113Z,101685.66
2022-12-16T22:31:59.210Z,101685.44
2022-12-16T22:34:55.872Z,101692.56
2022-12-16T22:37:40.728Z,101683.50
2022-12-16T22:40:26.743Z,101690.59
2022-12-16T22:43:13.657Z,101690.59
2022-12-16T22:45:59.186Z,101700.56
2022-12-16T22:48:44.530Z,101709.50
2022-12-16T22:51:29.703Z,101705.09
2022-12-16T22:54:14.760Z,101712.44
2022-12-16T22:56:59.869Z,101710.72
2022-12-16T22:59:46.001Z,101713.53
2022-12-16T23:02:31.330Z,101715.50
2022-12-16T23:05:16.285Z,101715.38
2022-12-16T23:08:01.214Z,101712.66
2022-12-16T23:10:46.393Z,101713.44
2022-12-16T23:13:31.841Z,101716.78
2022-12-16T23:16:18.086Z,101708.56
2022-12-16T23:19:03.324Z,101715.72
2022-12-16T23:21:48.592Z,101713.13
2022-12-16T23:24:33.639Z,101719.38
2022-12-16T23:27:18.854Z,101721.97
2022-12-16T23:50:44.394Z,101729.31
2022-12-16T23:53:29.534Z,101731.03
2022-12-16T23:56:16.915Z,101729.09
2022-12-16T23:59:01.805Z,101735.25
